Time;durP1;ratioP1;P1;durP2;ratioP2;P2;SDS_P1;SDS_P2;PMS_P1;PMS_P2;Temp;Humidity;BMP_temperature;BMP_pressure;BME280_temperature;BME280_humidity;BME280_pressure;Samples;Min_cycle;Max_cycle;Signal;HPM_P1;HPM_P2
2023/02/09 00:00:03;;;;;;;11.30;7.50;;;;;;;-2.21;100.00;102477.47;695606;28;1189;-65
2023/02/09 00:00:33;;;;;;;11.65;7.30;;;;;;;-2.10;100.00;102477.47;695589;28;1197;-65
2023/02/09 00:00:53;;;;;;;11.20;7.10;;;;;;;-2.07;100.00;102482.84;693848;28;4388;-64
2023/02/09 00:01:17;;;;;;;11.00;7.32;;;;;;;-2.06;100.00;102476.94;695430;28;1118;-65
2023/02/09 00:01:37;;;;;;;11.95;7.50;;;;;;;-2.09;100.00;102469.03;693805;28;1257;-64
2023/02/09 00:01:58;;;;;;;11.77;7.20;;;;;;;-2.13;100.00;102471.22;694762;28;1405;-65
2023/02/09 00:02:18;;;;;;;11.37;7.17;;;;;;;-2.13;100.00;102467.00;694567;28;1135;-65
2023/02/09 00:02:39;;;;;;;11.93;7.50;;;;;;;-2.16;100.00;102477.03;695131;28;1415;-64
2023/02/09 00:02:59;;;;;;;12.20;7.82;;;;;;;-2.16;100.00;102479.59;692719;28;1206;-65
2023/02/09 00:03:19;;;;;;;13.43;8.03;;;;;;;-2.15;100.00;102478.78;692783;28;1218;-65
2023/02/09 00:03:40;;;;;;;12.93;7.97;;;;;;;-2.20;100.00;102467.31;691779;28;6318;-64
2023/02/09 00:04:01;;;;;;;12.37;7.40;;;;;;;-2.19;100.00;102470.78;693368;28;1210;-65
2023/02/09 00:04:22;;;;;;;12.57;7.60;;;;;;;-2.18;100.00;102470.00;694895;28;1324;-65
2023/02/09 00:04:42;;;;;;;11.43;7.32;;;;;;;-2.20;100.00;102472.44;695213;28;1336;-65
2023/02/09 00:05:03;;;;;;;12.03;7.77;;;;;;;-2.21;100.00;102473.22;692169;28;2208;-66
2023/02/09 00:05:23;;;;;;;12.07;7.60;;;;;;;-2.21;100.00;102470.66;693698;28;2524;-65
2023/02/09 00:05:43;;;;;;;11.90;7.63;;;;;;;-2.19;100.00;102465.66;694337;28;1407;-64
2023/02/09 00:06:05;;;;;;;11.37;7.77;;;;;;;-2.17;100.00;102466.63;695319;28;1115;-65
2023/02/09 00:06:28;;;;;;;11.90;7.70;;;;;;;-2.18;100.00;102463.19;694423;28;1044;-64
2023/02/09 00:06:49;;;;;;;10.75;7.50;;;;;;;-2.17;100.00;102469.19;695008;28;6553;-65
2023/02/09 00:07:09;;;;;;;11.80;7.60;;;;;;;-2.19;100.00;102466.53;695695;28;1166;-63
2023/02/09 00:07:29;;;;;;;11.77;7.57;;;;;;;-2.19;100.00;102471.66;694701;28;1903;-65
2023/02/09 00:07:50;;;;;;;12.07;7.23;;;;;;;-2.17;100.00;102459.88;695116;28;1240;-65
2023/02/09 00:08:10;;;;;;;11.90;7.55;;;;;;;-2.17;100.00;102467.56;695457;28;1217;-64
2023/02/09 00:08:33;;;;;;;12.67;7.43;;;;;;;-2.18;100.00;102468.31;695621;28;860;-66
2023/02/09 00:08:55;;;;;;;12.23;7.03;;;;;;;-2.22;100.00;102463.75;694658;28;1274;-65
2023/02/09 00:09:15;;;;;;;11.95;7.72;;;;;;;-2.25;100.00;102458.38;695328;28;1268;-65
2023/02/09 00:09:36;;;;;;;11.50;7.70;;;;;;;-2.27;100.00;102458.28;695691;28;1386;-64
2023/02/09 00:09:56;;;;;;;11.60;7.43;;;;;;;-2.28;100.00;102460.72;692031;28;6017;-65
2023/02/09 00:10:16;;;;;;;11.77;7.55;;;;;;;-2.28;100.00;102463.28;690657;28;1249;-64
2023/02/09 00:10:39;;;;;;;10.70;7.20;;;;;;;-2.25;100.00;102463.50;689914;28;1190;-64
2023/02/09 00:11:04;;;;;;;11.90;7.57;;;;;;;-2.16;100.00;102471.00;691531;28;1167;-65
2023/02/09 00:13:26;;;;;;;12.68;7.45;;;;;;;-2.31;100.00;102468.16;695040;28;1190;-64
2023/02/09 00:13:47;;;;;;;12.88;7.72;;;;;;;-2.32;100.00;102466.38;694143;28;1391;-64
2023/02/09 00:14:08;;;;;;;12.30;7.67;;;;;;;-2.32;100.00;102463.81;695479;28;1019;-64
2023/02/09 00:14:31;;;;;;;13.30;7.78;;;;;;;-2.33;100.00;102467.16;695425;28;1170;-64
2023/02/09 00:14:51;;;;;;;11.48;7.55;;;;;;;-2.34;100.00;102466.28;695601;28;1030;-65
2023/02/09 00:15:12;;;;;;;11.80;7.60;;;;;;;-2.33;100.00;102470.59;695706;28;1201;-65
2023/02/09 00:15:32;;;;;;;13.07;7.65;;;;;;;-2.33;100.00;102467.16;695071;28;1193;-64
2023/02/09 00:16:00;;;;;;;12.60;7.87;;;;;;;-2.34;100.00;102465.38;693860;28;5889;-65
2023/02/09 00:16:24;;;;;;;10.98;7.53;;;;;;;-2.32;100.00;102464.72;694924;28;959;-65
2023/02/09 00:16:44;;;;;;;11.52;7.93;;;;;;;-2.28;100.00;102463.28;695347;28;987;-64
2023/02/09 00:17:05;;;;;;;12.23;7.97;;;;;;;-2.29;100.00;102464.06;695746;28;1213;-64
2023/02/09 00:17:26;;;;;;;12.48;7.88;;;;;;;-2.30;100.00;102463.16;695929;28;1213;-64
2023/02/09 00:17:46;;;;;;;12.17;7.73;;;;;;;-2.32;100.00;102464.72;695722;28;1218;-64
2023/02/09 00:18:07;;;;;;;12.23;8.10;;;;;;;-2.31;100.00;102470.72;696109;28;1174;-64
2023/02/09 00:18:29;;;;;;;12.23;8.37;;;;;;;-2.30;100.00;102468.28;695539;28;1205;-64
2023/02/09 00:18:49;;;;;;;12.02;8.00;;;;;;;-2.30;100.00;102469.94;694420;28;5825;-65
2023/02/09 00:19:10;;;;;;;11.87;7.60;;;;;;;-2.30;100.00;102468.28;696118;28;1182;-64
2023/02/09 00:19:31;;;;;;;12.85;7.90;;;;;;;-2.30;100.00;102469.94;695236;28;1135;-64
2023/02/09 00:19:54;;;;;;;12.40;8.05;;;;;;;-2.35;100.00;102461.91;695861;28;955;-64
2023/02/09 00:20:15;;;;;;;12.13;7.70;;;;;;;-2.35;100.00;102468.69;694965;28;4175;-64
2023/02/09 00:20:35;;;;;;;12.52;7.95;;;;;;;-2.37;100.00;102466.00;695794;28;1264;-65
2023/02/09 00:21:06;;;;;;;11.70;7.50;;;;;;;-2.34;100.00;102465.38;695263;28;1242;-65
2023/02/09 00:21:26;;;;;;;11.40;7.47;;;;;;;-2.36;100.00;102466.94;695311;28;1530;-65
2023/02/09 00:21:47;;;;;;;11.82;7.50;;;;;;;-2.35;100.00;102472.16;695015;28;6586;-65
2023/02/09 00:22:07;;;;;;;12.03;7.60;;;;;;;-2.35;100.00;102461.00;695307;28;1170;-64
2023/02/09 00:22:28;;;;;;;12.50;7.70;;;;;;;-2.34;100.00;102467.91;695100;28;1139;-62
2023/02/09 00:22:48;;;;;;;13.90;7.93;;;;;;;-2.34;100.00;102467.91;694751;28;1022;-65
2023/02/09 00:23:09;;;;;;;13.25;7.90;;;;;;;-2.33;100.00;102473.16;695899;28;1159;-64
2023/02/09 00:23:30;;;;;;;13.10;7.83;;;;;;;-2.35;100.00;102471.25;694577;28;1190;-64
2023/02/09 00:23:50;;;;;;;11.70;7.60;;;;;;;-2.37;100.00;102468.56;694956;28;996;-64
2023/02/09 00:24:12;;;;;;;11.47;7.77;;;;;;;-2.40;100.00;102466.66;695871;28;1163;-64
2023/02/09 00:24:32;;;;;;;12.85;8.00;;;;;;;-2.33;100.00;102464.59;694081;28;1403;-64
2023/02/09 00:24:52;;;;;;;11.90;7.43;;;;;;;-2.29;100.00;102464.94;694799;28;6274;-65
2023/02/09 00:25:13;;;;;;;12.10;7.63;;;;;;;-2.30;100.00;102467.38;695633;28;1127;-64
2023/02/09 00:25:33;;;;;;;12.75;7.82;;;;;;;-2.29;100.00;102469.19;692904;28;1333;-63
2023/02/09 00:25:54;;;;;;;12.67;7.90;;;;;;;-2.29;100.00;102466.63;694002;28;1241;-64
2023/02/09 00:26:14;;;;;;;13.20;7.75;;;;;;;-2.29;100.00;102464.06;692431;28;1094;-65
2023/02/09 00:26:38;;;;;;;12.13;7.50;;;;;;;-2.31;100.00;102465.59;692697;28;1414;-64
2023/02/09 00:26:58;;;;;;;11.15;7.47;;;;;;;-2.32;100.00;102461.25;692863;28;1305;-64
2023/02/09 00:27:19;;;;;;;12.60;7.68;;;;;;;-2.32;100.00;102459.59;693413;28;1273;-65
2023/02/09 00:27:39;;;;;;;13.73;7.87;;;;;;;-2.34;100.00;102462.81;694816;28;6591;-64
2023/02/09 00:27:59;;;;;;;13.55;7.88;;;;;;;-2.36;100.00;102462.69;694662;28;1285;-64
2023/02/09 00:28:20;;;;;;;12.30;7.93;;;;;;;-2.35;100.00;102459.34;695736;28;1158;-65
2023/02/09 00:28:40;;;;;;;13.13;7.82;;;;;;;-2.35;100.00;102456.78;693900;28;1244;-64
2023/02/09 00:29:01;;;;;;;12.27;7.63;;;;;;;-2.36;100.00;102459.25;694461;28;1315;-65
2023/02/09 00:29:22;;;;;;;11.27;7.70;;;;;;;-2.39;100.00;102454.78;693941;28;1150;-64
2023/02/09 00:29:43;;;;;;;12.77;7.65;;;;;;;-2.40;100.00;102458.09;688992;28;1246;-64
2023/02/09 00:30:04;;;;;;;13.63;8.20;;;;;;;-2.40;100.00;102456.41;690268;28;1337;-64
2023/02/09 00:30:24;;;;;;;12.85;7.75;;;;;;;-2.41;100.00;102457.22;690071;28;1199;-63
2023/02/09 00:30:45;;;;;;;13.27;7.70;;;;;;;-2.43;100.00;102466.44;690936;28;5825;-64
2023/02/09 00:31:08;;;;;;;12.75;7.57;;;;;;;-2.43;100.00;102447.63;695853;28;1013;-64
2023/02/09 00:31:28;;;;;;;11.45;7.30;;;;;;;-2.43;100.00;102451.06;694014;28;1218;-65
2023/02/09 00:31:50;;;;;;;12.82;7.57;;;;;;;-2.42;100.00;102446.88;696337;28;1056;-65
2023/02/09 00:32:10;;;;;;;12.02;7.80;;;;;;;-2.42;100.00;102457.09;696218;28;998;-64
2023/02/09 00:32:32;;;;;;;12.00;7.53;;;;;;;-2.40;100.00;102456.41;693218;28;1717;-65
2023/02/09 00:32:53;;;;;;;12.13;7.90;;;;;;;-2.38;100.00;102447.97;692703;28;1179;-64
2023/02/09 00:33:13;;;;;;;12.48;7.93;;;;;;;-2.39;100.00;102457.34;693756;28;1670;-65
2023/02/09 00:33:36;;;;;;;12.90;8.32;;;;;;;-2.28;100.00;102450.47;693469;28;1416;-64
2023/02/09 00:33:57;;;;;;;13.53;8.60;;;;;;;-2.15;100.00;102457.41;692594;28;4329;-65
2023/02/09 00:34:20;;;;;;;13.20;7.97;;;;;;;-2.14;100.00;102454.97;692970;28;924;-65
2023/02/09 00:34:41;;;;;;;12.65;7.50;;;;;;;-2.20;100.00;102457.06;690504;28;1225;-65
2023/02/09 00:35:02;;;;;;;12.13;7.70;;;;;;;-2.24;100.00;102450.81;692739;28;1284;-65
2023/02/09 00:35:22;;;;;;;12.37;8.23;;;;;;;-2.26;100.00;102446.34;691898;28;853;-65
2023/02/09 00:35:43;;;;;;;11.63;7.80;;;;;;;-2.28;100.00;102448.78;695022;28;1614;-64
2023/02/09 00:36:05;;;;;;;11.27;7.35;;;;;;;-2.31;100.00;102450.22;693951;28;1210;-64
2023/02/09 00:36:26;;;;;;;11.52;7.53;;;;;;;-2.29;100.00;102451.25;695944;28;1226;-64
2023/02/09 00:36:47;;;;;;;13.68;8.05;;;;;;;-2.31;100.00;102457.91;693689;28;4715;-65
2023/02/09 00:37:07;;;;;;;12.60;7.93;;;;;;;-2.36;100.00;102447.31;694512;28;906;-65
2023/02/09 00:37:27;;;;;;;11.30;7.50;;;;;;;-2.38;100.00;102454.00;694602;28;1288;-65
2023/02/09 00:37:48;;;;;;;12.70;7.80;;;;;;;-2.38;100.00;102460.78;694687;28;1013;-65
2023/02/09 00:38:09;;;;;;;11.95;7.82;;;;;;;-2.40;100.00;102456.41;690534;28;1512;-65
2023/02/09 00:38:30;;;;;;;12.65;7.72;;;;;;;-2.41;100.00;102457.22;691204;28;904;-64
2023/02/09 00:38:50;;;;;;;12.80;7.83;;;;;;;-2.43;100.00;102452.75;691671;28;5049;-65
2023/02/09 00:39:11;;;;;;;12.17;7.80;;;;;;;-2.44;100.00;102467.25;692414;28;1072;-64
2023/02/09 00:39:31;;;;;;;12.40;8.03;;;;;;;-2.45;100.00;102465.44;696111;28;833;-65
2023/02/09 00:39:51;;;;;;;13.00;7.97;;;;;;;-2.46;100.00;102461.09;692990;28;4410;-65
2023/02/09 00:40:12;;;;;;;12.55;8.05;;;;;;;-2.44;100.00;102457.00;696190;28;891;-65
2023/02/09 00:40:33;;;;;;;14.07;8.30;;;;;;;-2.45;100.00;102461.97;693276;28;1322;-65
2023/02/09 00:40:53;;;;;;;13.85;7.88;;;;;;;-2.47;100.00;102464.41;693027;28;1191;-65
2023/02/09 00:41:15;;;;;;;11.50;7.30;;;;;;;-2.45;100.00;102455.19;693369;28;902;-64
2023/02/09 00:42:14;;;;;;;12.02;7.95;;;;;;;-2.44;100.00;102464.69;694585;28;1030;-64
2023/02/09 00:42:35;;;;;;;12.77;8.02;;;;;;;-2.46;100.00;102461.09;693461;28;1239;-64
2023/02/09 00:42:55;;;;;;;12.10;7.90;;;;;;;-2.46;100.00;102466.22;693230;28;4407;-64
2023/02/09 00:43:17;;;;;;;11.65;7.82;;;;;;;-2.45;100.00;102462.88;693165;28;841;-65
2023/02/09 00:43:39;;;;;;;12.35;8.02;;;;;;;-2.44;100.00;102459.56;691421;28;1305;-65
2023/02/09 00:44:00;;;;;;;12.57;7.70;;;;;;;-2.45;100.00;102457.75;693529;28;860;-65
2023/02/09 00:44:20;;;;;;;12.23;7.90;;;;;;;-2.41;100.00;102458.88;693761;28;1620;-64
2023/02/09 00:44:41;;;;;;;12.30;7.78;;;;;;;-2.40;100.00;102461.53;694947;28;1051;-65
2023/02/09 00:45:01;;;;;;;13.13;8.27;;;;;;;-2.38;100.00;102458.22;696306;28;908;-65
2023/02/09 00:45:21;;;;;;;13.15;8.30;;;;;;;-2.37;100.00;102455.78;696280;28;1021;-64
2023/02/09 00:45:42;;;;;;;13.20;8.03;;;;;;;-2.38;100.00;102458.22;690510;28;4429;-64
2023/02/09 00:46:02;;;;;;;13.63;8.10;;;;;;;-2.40;100.00;102455.53;693212;28;1360;-65
2023/02/09 00:46:23;;;;;;;13.67;8.07;;;;;;;-2.42;100.00;102465.66;692543;28;936;-64
2023/02/09 00:46:43;;;;;;;13.00;8.10;;;;;;;-2.44;100.00;102467.25;691551;28;940;-65
2023/02/09 00:47:05;;;;;;;12.80;7.90;;;;;;;-2.46;100.00;102466.22;691796;28;912;-64
2023/02/09 00:47:25;;;;;;;12.30;7.85;;;;;;;-2.45;100.00;102462.88;692418;28;1977;-64
2023/02/09 00:47:46;;;;;;;11.95;8.13;;;;;;;-2.46;100.00;102461.09;697102;28;1953;-65
2023/02/09 00:48:06;;;;;;;12.63;7.87;;;;;;;-2.43;100.00;102451.06;696488;28;1251;-65
2023/02/09 00:48:27;;;;;;;12.53;8.00;;;;;;;-2.41;100.00;102456.31;697074;28;815;-65
2023/02/09 00:48:47;;;;;;;12.53;7.90;;;;;;;-2.42;100.00;102459.66;696172;28;4686;-65
2023/02/09 00:49:07;;;;;;;12.85;7.68;;;;;;;-2.36;100.00;102461.81;693561;28;1229;-64
2023/02/09 00:49:29;;;;;;;12.77;7.57;;;;;;;-2.39;100.00;102447.09;696183;28;1233;-65
2023/02/09 00:49:49;;;;;;;13.05;7.80;;;;;;;-2.40;100.00;102458.97;695407;28;1478;-63
2023/02/09 00:50:09;;;;;;;13.03;7.90;;;;;;;-2.34;100.00;102457.69;696302;28;967;-64
2023/02/09 00:50:30;;;;;;;14.23;8.07;;;;;;;-2.32;100.00;102451.03;696240;28;959;-66
2023/02/09 00:50:52;;;;;;;13.70;8.32;;;;;;;-2.25;100.00;102454.16;693078;28;1034;-65
2023/02/09 00:51:12;;;;;;;12.98;8.52;;;;;;;-2.23;100.00;102455.16;693738;28;967;-64
2023/02/09 00:51:33;;;;;;;13.50;8.33;;;;;;;-2.25;100.00;102453.25;693306;28;1271;-62
2023/02/09 00:51:56;;;;;;;12.82;8.15;;;;;;;-2.28;100.00;102453.91;694684;28;6069;-64
2023/02/09 00:52:16;;;;;;;12.77;8.10;;;;;;;-2.27;100.00;102452.25;693257;28;927;-65
2023/02/09 00:52:36;;;;;;;13.97;8.30;;;;;;;-2.29;100.00;102456.38;693858;28;1281;-63
2023/02/09 00:52:57;;;;;;;13.73;8.30;;;;;;;-2.30;100.00;102463.16;696203;28;1175;-64
2023/02/09 00:53:18;;;;;;;12.20;7.93;;;;;;;-2.37;100.00;102457.44;692794;28;920;-65
2023/02/09 00:53:38;;;;;;;12.38;7.65;;;;;;;-2.41;100.00;102453.75;687222;28;979;-65
2023/02/09 00:53:59;;;;;;;12.95;7.90;;;;;;;-2.43;100.00;102456.19;688311;28;901;-64
2023/02/09 00:54:20;;;;;;;12.57;7.97;;;;;;;-2.46;100.00;102455.97;689352;28;1011;-64
2023/02/09 00:54:41;;;;;;;13.10;8.27;;;;;;;-2.46;100.00;102450.84;689654;28;4301;-64
2023/02/09 00:55:01;;;;;;;12.77;7.87;;;;;;;-2.45;100.00;102462.88;693730;28;1023;-64
2023/02/09 00:55:22;;;;;;;13.37;8.00;;;;;;;-2.43;100.00;102460.44;692366;28;1533;-65
2023/02/09 00:55:43;;;;;;;14.60;8.18;;;;;;;-2.43;100.00;102451.06;696843;28;986;-65
2023/02/09 00:56:03;;;;;;;13.70;7.93;;;;;;;-2.38;100.00;102450.53;696832;28;1454;-64
2023/02/09 00:56:24;;;;;;;13.95;8.30;;;;;;;-2.40;100.00;102448.75;693256;28;888;-64
2023/02/09 00:56:44;;;;;;;12.73;8.23;;;;;;;-2.41;100.00;102454.66;693780;28;1037;-65
2023/02/09 00:57:05;;;;;;;12.30;8.00;;;;;;;-2.43;100.00;102458.75;693562;28;1459;-65
2023/02/09 00:57:27;;;;;;;14.80;8.40;;;;;;;-2.42;100.00;102455.44;695838;28;1314;-64
2023/02/09 00:57:47;;;;;;;13.80;8.00;;;;;;;-2.37;100.00;102454.88;692701;28;4504;-64
2023/02/09 00:58:08;;;;;;;12.87;7.80;;;;;;;-2.37;100.00;102460.00;693200;28;1193;-64
2023/02/09 00:58:28;;;;;;;13.20;8.47;;;;;;;-2.37;100.00;102460.00;696028;28;868;-65
2023/02/09 00:58:48;;;;;;;12.20;8.48;;;;;;;-2.36;100.00;102457.56;695447;28;1166;-64
2023/02/09 00:59:10;;;;;;;12.48;8.18;;;;;;;-2.40;100.00;102461.53;696033;28;820;-65
2023/02/09 00:59:33;;;;;;;13.38;8.25;;;;;;;-2.41;100.00;102454.66;696216;28;963;-65
2023/02/09 00:59:53;;;;;;;13.23;8.07;;;;;;;-2.43;100.00;102460.44;695628;28;2059;-65
2023/02/09 01:00:14;;;;;;;12.90;8.33;;;;;;;-2.44;100.00;102463.75;695368;28;896;-65
2023/02/09 01:00:35;;;;;;;12.88;7.97;;;;;;;-2.42;100.00;102464.78;695920;28;1235;-64
2023/02/09 01:00:56;;;;;;;13.05;8.00;;;;;;;-2.41;100.00;102454.66;695199;28;4436;-65
2023/02/09 01:01:16;;;;;;;12.27;7.77;;;;;;;-2.36;100.00;102456.69;693957;28;1616;-64
2023/02/09 01:01:38;;;;;;;13.10;7.77;;;;;;;-2.35;100.00;102461.00;694978;28;1100;-65
2023/02/09 01:01:58;;;;;;;12.80;8.30;;;;;;;-2.37;100.00;102444.63;694586;28;1206;-65
2023/02/09 01:02:19;;;;;;;12.85;8.60;;;;;;;-2.37;100.00;102452.31;692233;28;1045;-65
2023/02/09 01:02:39;;;;;;;12.47;8.40;;;;;;;-2.37;100.00;102452.31;694505;28;1141;-65
2023/02/09 01:03:00;;;;;;;12.90;8.27;;;;;;;-2.38;100.00;102455.66;692773;28;957;-65
2023/02/09 01:03:20;;;;;;;12.45;7.90;;;;;;;-2.38;100.00;102453.09;695610;28;820;-65
2023/02/09 01:03:41;;;;;;;12.53;8.00;;;;;;;-2.40;100.00;102455.53;693938;28;4694;-65
2023/02/09 01:04:02;;;;;;;12.35;8.20;;;;;;;-2.44;100.00;102449.31;693047;28;1332;-65
2023/02/09 01:04:22;;;;;;;12.02;8.00;;;;;;;-2.44;100.00;102449.31;695550;28;852;-65
2023/02/09 01:04:43;;;;;;;13.03;7.90;;;;;;;-2.43;100.00;102447.63;696054;28;1024;-65
2023/02/09 01:05:03;;;;;;;12.53;7.90;;;;;;;-2.37;100.00;102454.88;696253;28;1397;-64
2023/02/09 01:05:24;;;;;;;12.65;8.30;;;;;;;-2.35;100.00;102448.19;696085;28;998;-64
2023/02/09 01:05:44;;;;;;;13.37;8.17;;;;;;;-2.36;100.00;102452.44;695820;28;1345;-64
2023/02/09 01:06:05;;;;;;;11.80;7.70;;;;;;;-2.34;100.00;102447.44;697766;28;799;-64
2023/02/09 01:06:26;;;;;;;12.63;8.02;;;;;;;-2.32;100.00;102448.47;697287;28;1005;-65
2023/02/09 01:06:46;;;;;;;13.23;8.23;;;;;;;-2.31;100.00;102450.22;697451;28;4435;-63
2023/02/09 01:07:10;;;;;;;13.13;8.52;;;;;;;-2.29;100.00;102439.31;698231;28;891;-64
2023/02/09 01:07:30;;;;;;;12.93;8.10;;;;;;;-2.18;100.00;102446.94;697478;28;1890;-64
2023/02/09 01:07:52;;;;;;;14.52;8.40;;;;;;;-2.21;100.00;102447.59;694661;28;1035;-65
2023/02/09 01:08:14;;;;;;;14.00;8.23;;;;;;;-2.24;100.00;102437.13;695127;28;907;-65
2023/02/09 01:08:35;;;;;;;13.10;8.10;;;;;;;-2.21;100.00;102447.59;695248;28;852;-64
2023/02/09 01:08:57;;;;;;;13.50;8.35;;;;;;;-2.13;100.00;102449.06;695377;28;1086;-65
2023/02/09 01:09:17;;;;;;;13.57;8.52;;;;;;;-2.16;100.00;102443.72;695056;28;886;-64
2023/02/09 01:09:38;;;;;;;14.02;8.50;;;;;;;-2.06;100.00;102446.19;696234;28;4419;-65
2023/02/09 01:10:01;;;;;;;13.88;8.40;;;;;;;-2.04;100.00;102442.84;698982;28;953;-65
2023/02/09 01:10:22;;;;;;;13.00;8.40;;;;;;;-2.08;100.00;102445.19;698006;28;789;-65
2023/02/09 01:10:43;;;;;;;12.30;7.70;;;;;;;-2.02;100.00;102443.84;697014;28;1409;-65
2023/02/09 01:11:12;;;;;;;13.43;8.10;;;;;;;-2.01;100.00;102443.06;698171;28;809;-65
2023/02/09 01:11:32;;;;;;;14.48;8.50;;;;;;;-2.06;100.00;102446.19;696114;28;868;-64
2023/02/09 01:11:52;;;;;;;13.17;8.70;;;;;;;-2.10;100.00;102446.72;692177;28;1134;-64
2023/02/09 01:12:13;;;;;;;14.33;8.90;;;;;;;-2.11;100.00;102447.50;694531;28;832;-65
2023/02/09 01:12:34;;;;;;;11.57;8.10;;;;;;;-2.01;100.00;102446.53;695654;28;958;-65
2023/02/09 01:12:56;;;;;;;12.85;8.15;;;;;;;-2.04;100.00;102448.88;691103;28;4864;-64
2023/02/09 01:13:17;;;;;;;13.27;8.45;;;;;;;-2.03;100.00;102453.22;691018;28;939;-64
2023/02/09 01:13:37;;;;;;;13.17;8.43;;;;;;;-2.06;100.00;102451.31;690755;28;1449;-64
2023/02/09 01:13:59;;;;;;;12.35;8.52;;;;;;;-2.10;100.00;102450.97;693208;28;1108;-65
2023/02/09 01:14:19;;;;;;;13.35;8.32;;;;;;;-2.14;100.00;102446.41;691449;28;1451;-65
2023/02/09 01:14:40;;;;;;;12.43;8.35;;;;;;;-2.17;100.00;102456.38;691494;28;1098;-65
2023/02/09 01:15:01;;;;;;;14.43;8.50;;;;;;;-2.21;100.00;102447.59;691744;28;834;-65
2023/02/09 01:15:21;;;;;;;13.68;8.57;;;;;;;-2.27;100.00;102452.25;692459;28;1254;-65
2023/02/09 01:15:41;;;;;;;12.63;8.23;;;;;;;-2.25;100.00;102449.03;693898;28;4553;-64
2023/02/09 01:16:10;;;;;;;13.67;8.33;;;;;;;-2.26;100.00;102454.94;692575;28;1175;-65
2023/02/09 01:16:32;;;;;;;12.90;8.20;;;;;;;-2.28;100.00;102453.03;695569;28;4261;-65
2023/02/09 01:16:53;;;;;;;14.00;8.47;;;;;;;-2.30;100.00;102447.81;692470;28;1471;-64
2023/02/09 01:17:13;;;;;;;13.70;8.70;;;;;;;-2.33;100.00;102451.78;693483;28;840;-65
2023/02/09 01:17:36;;;;;;;13.95;8.48;;;;;;;-2.38;100.00;102451.44;690578;28;1246;-65
2023/02/09 01:17:58;;;;;;;13.10;8.27;;;;;;;-2.38;100.00;102453.09;692371;28;926;-65
2023/02/09 01:18:19;;;;;;;13.30;7.95;;;;;;;-2.38;100.00;102447.97;692950;28;832;-65
2023/02/09 01:18:41;;;;;;;13.00;8.20;;;;;;;-2.38;100.00;102445.41;690204;28;4571;-65
2023/02/09 01:19:02;;;;;;;13.27;8.40;;;;;;;-2.40;100.00;102453.84;691922;28;853;-65
2023/02/09 01:19:23;;;;;;;14.32;8.90;;;;;;;-2.42;100.00;102446.88;692396;28;991;-64
2023/02/09 01:19:43;;;;;;;14.57;8.63;;;;;;;-2.42;100.00;102449.44;692344;28;1372;-65
2023/02/09 01:20:05;;;;;;;14.57;8.73;;;;;;;-2.38;100.00;102447.97;692777;28;1162;-65
2023/02/09 01:20:27;;;;;;;13.40;8.68;;;;;;;-2.33;100.00;102454.34;693147;28;879;-65
2023/02/09 01:20:48;;;;;;;13.77;8.97;;;;;;;-2.34;100.00;102445.78;694782;28;1079;-65
2023/02/09 01:21:15;;;;;;;13.88;9.05;;;;;;;-2.26;100.00;102449.81;694001;28;1220;-65
2023/02/09 01:21:35;;;;;;;13.75;8.88;;;;;;;-2.28;100.00;102456.47;695577;28;1787;-64
2023/02/09 01:21:56;;;;;;;13.90;8.50;;;;;;;-2.34;100.00;102450.91;693954;28;4364;-65
2023/02/09 01:22:16;;;;;;;13.57;8.55;;;;;;;-2.29;100.00;102451.25;695337;28;986;-65
2023/02/09 01:22:38;;;;;;;12.63;8.48;;;;;;;-2.25;100.00;102449.03;691082;28;2093;-64
2023/02/09 01:22:58;;;;;;;14.27;9.10;;;;;;;-2.17;100.00;102448.69;693892;28;934;-65
2023/02/09 01:23:19;;;;;;;14.67;8.80;;;;;;;-2.21;100.00;102452.72;693244;28;871;-65
2023/02/09 01:23:39;;;;;;;14.10;9.03;;;;;;;-2.25;100.00;102451.59;693174;28;1020;-65
2023/02/09 01:24:00;;;;;;;13.53;8.30;;;;;;;-2.28;100.00;102447.91;687927;28;1131;-65
2023/02/09 01:24:20;;;;;;;12.57;8.30;;;;;;;-2.31;100.00;102447.66;684955;28;1414;-65
2023/02/09 01:24:41;;;;;;;13.02;8.35;;;;;;;-2.29;100.00;102446.13;686418;28;4782;-65
2023/02/09 01:25:04;;;;;;;13.37;8.57;;;;;;;-2.22;100.00;102450.94;685268;28;1164;-65
2023/02/09 01:25:24;;;;;;;13.57;8.60;;;;;;;-2.24;100.00;102445.69;687953;28;837;-65
2023/02/09 01:25:44;;;;;;;14.30;8.37;;;;;;;-2.20;100.00;102448.47;688410;28;1177;-65
2023/02/09 01:26:08;;;;;;;13.93;8.70;;;;;;;-2.15;100.00;102445.47;690812;28;1073;-64
2023/02/09 01:26:29;;;;;;;14.00;8.78;;;;;;;-2.20;100.00;102449.38;690423;28;908;-65
2023/02/09 01:26:49;;;;;;;12.83;8.70;;;;;;;-2.24;100.00;102445.69;691155;28;920;-65
2023/02/09 01:27:09;;;;;;;14.15;8.77;;;;;;;-2.24;100.00;102447.38;691465;28;950;-65
2023/02/09 01:27:30;;;;;;;14.57;8.50;;;;;;;-2.28;100.00;102450.47;690026;28;1541;-64
2023/02/09 01:27:50;;;;;;;13.83;8.47;;;;;;;-2.30;100.00;102446.88;691965;28;4425;-64
2023/02/09 01:28:10;;;;;;;13.75;8.55;;;;;;;-2.32;100.00;102449.34;691899;28;1312;-65
2023/02/09 01:28:31;;;;;;;14.30;9.00;;;;;;;-2.36;100.00;102449.88;692129;28;1255;-64
2023/02/09 01:28:52;;;;;;;14.45;9.35;;;;;;;-2.36;100.00;102446.44;688231;28;1219;-65
2023/02/09 01:29:18;;;;;;;13.38;8.40;;;;;;;-2.40;100.00;102445.28;691479;28;782;-64
2023/02/09 01:29:38;;;;;;;13.43;8.50;;;;;;;-2.40;100.00;102446.19;690274;28;1196;-64
2023/02/09 01:29:59;;;;;;;14.57;9.23;;;;;;;-2.42;100.00;102446.88;689580;28;858;-65
2023/02/09 01:30:19;;;;;;;13.93;8.57;;;;;;;-2.42;100.00;102447.75;694061;28;1029;-65
2023/02/09 01:30:41;;;;;;;13.73;8.35;;;;;;;-2.42;100.00;102450.31;695039;28;4405;-65
2023/02/09 01:31:01;;;;;;;14.00;8.20;;;;;;;-2.38;100.00;102447.97;695143;28;859;-66
2023/02/09 01:31:27;;;;;;;13.95;8.90;;;;;;;-2.33;100.00;102452.66;695893;28;1165;-65
2023/02/09 01:31:48;;;;;;;15.15;8.48;;;;;;;-2.34;100.00;102444.88;698592;28;1164;-65
2023/02/09 01:32:10;;;;;;;15.75;8.60;;;;;;;-2.33;100.00;102450.09;696371;28;1021;-65
2023/02/09 01:32:31;;;;;;;14.03;8.70;;;;;;;-2.35;100.00;102448.19;696954;28;852;-64
2023/02/09 01:32:52;;;;;;;13.48;8.63;;;;;;;-2.37;100.00;102450.66;698004;28;1342;-65
2023/02/09 01:33:12;;;;;;;13.15;8.73;;;;;;;-2.41;100.00;102444.41;697575;28;880;-65
2023/02/09 01:33:32;;;;;;;14.27;8.77;;;;;;;-2.41;100.00;102444.41;697839;28;911;-64
2023/02/09 01:33:54;;;;;;;14.15;8.57;;;;;;;-2.34;100.00;102450.91;696531;28;4442;-65
2023/02/09 01:34:17;;;;;;;13.15;8.48;;;;;;;-2.37;100.00;102449.75;695729;28;971;-64
2023/02/09 01:34:37;;;;;;;12.95;8.20;;;;;;;-2.36;100.00;102446.44;694963;28;1219;-65
2023/02/09 01:34:58;;;;;;;14.70;8.45;;;;;;;-2.40;100.00;102451.31;694593;28;1180;-65
2023/02/09 01:35:19;;;;;;;14.40;8.43;;;;;;;-2.41;100.00;102446.06;693275;28;895;-65
2023/02/09 01:35:39;;;;;;;14.13;9.00;;;;;;;-2.43;100.00;102445.94;693444;28;1427;-65
2023/02/09 01:36:04;;;;;;;13.85;8.90;;;;;;;-2.43;100.00;102450.19;695988;28;864;-65
2023/02/09 01:36:24;;;;;;;14.40;8.95;;;;;;;-2.42;100.00;102447.75;690291;28;2091;-65
2023/02/09 01:36:45;;;;;;;14.02;8.95;;;;;;;-2.38;100.00;102445.41;690160;28;4422;-65
2023/02/09 01:37:05;;;;;;;13.90;8.45;;;;;;;-2.35;100.00;102448.19;691406;28;785;-64
2023/02/09 01:37:26;;;;;;;13.47;8.67;;;;;;;-2.37;100.00;102439.53;692360;28;891;-65
2023/02/09 01:37:46;;;;;;;13.50;8.50;;;;;;;-2.39;100.00;102447.09;692268;28;1363;-65
2023/02/09 01:38:08;;;;;;;13.85;9.02;;;;;;;-2.42;100.00;102442.63;691364;28;1472;-65
2023/02/09 01:38:28;;;;;;;12.83;8.57;;;;;;;-2.46;100.00;102443.16;693342;28;813;-64
2023/02/09 01:38:50;;;;;;;12.70;8.30;;;;;;;-2.48;100.00;102437.03;693617;28;5048;-66
2023/02/09 01:39:12;;;;;;;13.90;8.55;;;;;;;-2.38;100.00;102437.72;691558;28;958;-65
2023/02/09 01:39:33;;;;;;;15.00;9.10;;;;;;;-2.37;100.00;102442.09;690432;28;1227;-63
2023/02/09 01:39:54;;;;;;;13.27;8.70;;;;;;;-2.37;100.00;102444.63;691536;28;4572;-65
2023/02/09 01:40:14;;;;;;;12.27;8.43;;;;;;;-2.42;100.00;102442.63;693723;28;1219;-65
2023/02/09 01:40:34;;;;;;;12.82;8.20;;;;;;;-2.42;100.00;102437.50;690501;28;895;-65
2023/02/09 01:40:55;;;;;;;14.03;8.80;;;;;;;-2.43;100.00;102439.94;690661;28;997;-65